Time;durP1;ratioP1;P1;durP2;ratioP2;P2;SDS_P1;SDS_P2;PMS_P1;PMS_P2;Temp;Humidity;BMP_temperature;BMP_pressure;BME280_temperature;BME280_humidity;BME280_pressure;Samples;Min_cycle;Max_cycle;Signal;HPM_P1;HPM_P2
2024/03/05 00:00:12;;;;;;;23.27;18.60;;;11.70;99.90;;;;;;5080349;28;20227;-41
2024/03/05 00:02:43;;;;;;;23.60;19.13;;;11.70;99.90;;;;;;5097708;28;20467;-40
2024/03/05 00:05:09;;;;;;;23.80;18.63;;;11.60;1.00;;;;;;5098522;28;20484;-41
2024/03/05 00:07:38;;;;;;;25.20;19.90;;;11.50;1.00;;;;;;5098722;28;20445;-41
2024/03/05 00:10:04;;;;;;;26.27;21.17;;;11.40;99.90;;;;;;5117589;28;20439;-40
2024/03/05 00:12:33;;;;;;;25.13;18.77;;;11.40;99.90;;;;;;5117226;28;20425;-41
2024/03/05 00:14:59;;;;;;;23.97;19.03;;;11.30;1.00;;;;;;5118250;28;20273;-43
2024/03/05 00:17:25;;;;;;;28.10;21.80;;;11.30;1.00;;;;;;5118406;28;20433;-41
2024/03/05 00:19:51;;;;;;;27.10;20.80;;;11.30;1.00;;;;;;5098097;28;20449;-42
2024/03/05 00:22:18;;;;;;;26.10;19.50;;;11.30;1.00;;;;;;5099092;28;20486;-41
2024/03/05 00:24:43;;;;;;;26.73;19.60;;;11.20;1.00;;;;;;5117787;28;20558;-41
2024/03/05 00:27:09;;;;;;;26.00;20.20;;;11.20;1.00;;;;;;5117640;28;20810;-44
2024/03/05 00:29:35;;;;;;;26.10;19.70;;;11.20;1.00;;;;;;5117921;28;20222;-42
2024/03/05 00:32:01;;;;;;;27.57;19.97;;;11.10;32.60;;;;;;5118327;28;20252;-43
2024/03/05 00:34:26;;;;;;;26.70;20.30;;;11.10;91.60;;;;;;5099608;28;20419;-42
2024/03/05 00:36:52;;;;;;;26.70;19.60;;;11.10;99.90;;;;;;5116876;28;20210;-43
2024/03/05 00:39:19;;;;;;;26.93;20.50;;;11.00;99.90;;;;;;5118158;28;20203;-42
2024/03/05 00:41:45;;;;;;;25.40;19.70;;;11.00;99.90;;;;;;5101039;28;20846;-41
2024/03/05 00:44:11;;;;;;;26.20;20.17;;;11.00;99.90;;;;;;5099037;28;20444;-43
2024/03/05 00:46:37;;;;;;;25.57;18.90;;;11.00;99.90;;;;;;5100443;28;20433;-42
2024/03/05 00:49:02;;;;;;;25.57;20.07;;;10.90;99.90;;;;;;5100365;28;20759;-42
2024/03/05 00:51:28;;;;;;;27.63;20.53;;;10.90;99.90;;;;;;5100759;28;20199;-42
2024/03/05 00:53:54;;;;;;;27.20;20.90;;;10.90;99.90;;;;;;5118289;28;20187;-44
2024/03/05 00:56:20;;;;;;;29.57;21.50;;;10.90;99.90;;;;;;5118544;28;20187;-40
2024/03/05 00:58:46;;;;;;;24.07;18.70;;;10.90;99.90;;;;;;5116737;28;20875;-40
2024/03/05 01:01:11;;;;;;;27.17;21.30;;;10.80;1.00;;;;;;5100333;28;20435;-42
2024/03/05 01:03:37;;;;;;;27.70;22.23;;;10.80;1.00;;;;;;5117877;28;20890;-40
2024/03/05 01:06:04;;;;;;;24.80;20.00;;;10.80;1.00;;;;;;5118136;28;20267;-42
2024/03/05 01:08:30;;;;;;;22.67;18.67;;;10.80;1.00;;;;;;5117916;28;20232;-40
2024/03/05 01:10:57;;;;;;;26.80;19.77;;;10.80;1.00;;;;;;5117817;28;20831;-42
2024/03/05 01:13:22;;;;;;;26.97;20.70;;;10.70;1.00;;;;;;5116556;28;20447;-43
2024/03/05 01:15:48;;;;;;;27.40;19.73;;;10.70;1.00;;;;;;5114913;28;20460;-43
2024/03/05 01:18:14;;;;;;;27.70;20.07;;;10.70;1.00;;;;;;5115563;28;20168;-40
2024/03/05 01:20:41;;;;;;;28.60;21.50;;;10.70;1.00;;;;;;5115519;28;20168;-41
2024/03/05 01:23:10;;;;;;;25.87;20.50;;;10.70;1.00;;;;;;5097412;28;20172;-41
2024/03/05 01:25:39;;;;;;;25.87;19.97;;;10.70;1.00;;;;;;5099939;28;20440;-40
2024/03/05 01:28:05;;;;;;;25.90;20.77;;;10.60;1.00;;;;;;5120239;28;20417;-40
2024/03/05 01:30:30;;;;;;;24.67;20.43;;;10.60;1.00;;;;;;5120175;28;20421;-42
2024/03/05 01:32:57;;;;;;;26.40;20.37;;;10.60;1.00;;;;;;5120317;28;20416;-43
2024/03/05 01:35:23;;;;;;;27.10;20.10;;;10.60;1.00;;;;;;5120992;28;20172;-40
2024/03/05 01:37:49;;;;;;;26.93;20.50;;;10.60;1.00;;;;;;5121149;28;20524;-41
2024/03/05 01:40:14;;;;;;;29.03;19.93;;;10.60;1.00;;;;;;5119114;28;20587;-42
2024/03/05 01:42:41;;;;;;;29.17;21.90;;;10.60;1.00;;;;;;5119111;28;20191;-41
2024/03/05 01:45:07;;;;;;;25.70;19.57;;;10.60;5.60;;;;;;5120665;28;20167;-41
2024/03/05 01:47:33;;;;;;;27.67;19.93;;;10.60;1.20;;;;;;5120078;28;20908;-42
2024/03/05 01:49:59;;;;;;;28.13;20.90;;;10.60;7.90;;;;;;5120696;28;20438;-41
2024/03/05 01:52:27;;;;;;;26.40;18.90;;;10.60;15.60;;;;;;5103094;28;20704;-41
2024/03/05 01:54:55;;;;;;;23.10;18.87;;;10.60;34.30;;;;;;5120834;28;20437;-41
2024/03/05 01:57:22;;;;;;;27.03;19.67;;;10.60;33.10;;;;;;5119612;28;20445;-40
2024/03/05 01:59:48;;;;;;;26.80;20.47;;;10.50;49.00;;;;;;5102041;28;20453;-41
2024/03/05 02:02:14;;;;;;;28.87;21.00;;;10.50;76.80;;;;;;5120927;28;20448;-41
2024/03/05 02:04:39;;;;;;;29.10;20.00;;;10.60;94.70;;;;;;5120826;28;20202;-41
2024/03/05 02:07:09;;;;;;;27.57;19.97;;;10.50;99.90;;;;;;5102528;28;20188;-43
2024/03/05 02:09:36;;;;;;;24.40;19.77;;;10.50;99.90;;;;;;5119083;28;20422;-40
2024/03/05 02:12:02;;;;;;;25.37;18.77;;;10.50;99.90;;;;;;5119664;28;20401;-40
2024/03/05 02:14:28;;;;;;;29.37;20.30;;;10.50;99.90;;;;;;5102287;28;20422;-42
2024/03/05 02:16:58;;;;;;;25.97;20.03;;;10.50;99.90;;;;;;5119908;28;20183;-42
2024/03/05 02:19:24;;;;;;;29.43;22.23;;;10.50;99.90;;;;;;5101553;28;20484;-40
2024/03/05 02:21:57;;;;;;;27.40;19.70;;;10.50;99.90;;;;;;5118495;28;20418;-40
2024/03/05 02:24:23;;;;;;;24.30;18.90;;;10.50;99.90;;;;;;5100892;28;20426;-41
2024/03/05 02:26:48;;;;;;;31.73;21.60;;;10.50;99.90;;;;;;5119546;28;20401;-42
2024/03/05 02:29:14;;;;;;;30.30;21.90;;;10.50;99.90;;;;;;5119531;28;20244;-41
2024/03/05 02:31:40;;;;;;;32.73;22.17;;;10.50;99.90;;;;;;5119784;28;20217;-40
2024/03/05 02:34:07;;;;;;;29.73;20.60;;;10.50;99.90;;;;;;5119547;28;20175;-41
2024/03/05 02:36:32;;;;;;;29.33;20.90;;;10.50;99.90;;;;;;5118390;28;20546;-42
2024/03/05 02:38:58;;;;;;;29.00;21.00;;;10.50;99.90;;;;;;5116095;28;20643;-42
2024/03/05 02:41:24;;;;;;;27.07;21.10;;;10.50;99.90;;;;;;5099485;28;20176;-43
2024/03/05 02:43:49;;;;;;;30.43;22.13;;;10.40;99.90;;;;;;5101018;28;20176;-41
2024/03/05 02:46:15;;;;;;;27.30;20.23;;;10.40;99.90;;;;;;5118849;28;20176;-39
2024/03/05 02:48:42;;;;;;;32.23;22.73;;;10.40;99.90;;;;;;5118809;28;20183;-43
2024/03/05 02:51:08;;;;;;;28.07;20.47;;;10.40;99.90;;;;;;5116755;28;20187;-41
2024/03/05 02:53:34;;;;;;;33.77;22.20;;;10.40;99.90;;;;;;5118817;28;20413;-41
2024/03/05 02:56:02;;;;;;;28.93;21.20;;;10.40;99.90;;;;;;5118903;28;20459;-41
2024/03/05 02:58:30;;;;;;;26.37;20.10;;;10.40;99.90;;;;;;5101027;28;20503;-41
2024/03/05 03:00:55;;;;;;;28.83;20.80;;;10.40;99.90;;;;;;5119093;28;20426;-41
2024/03/05 03:06:43;;;;;;;32.23;23.20;;;10.40;1.00;;;;;;5118250;28;20174;-41
2024/03/05 03:09:09;;;;;;;30.60;22.17;;;10.30;1.00;;;;;;5119065;28;20466;-43
2024/03/05 03:11:34;;;;;;;32.73;23.53;;;10.30;1.00;;;;;;5118632;28;20191;-42
2024/03/05 03:14:00;;;;;;;28.30;22.00;;;10.30;1.00;;;;;;5119873;28;20210;-41
2024/03/05 03:16:26;;;;;;;29.83;21.57;;;10.30;1.00;;;;;;5119164;28;20266;-42
2024/03/05 03:18:52;;;;;;;27.50;20.30;;;10.30;1.00;;;;;;5117805;28;20559;-40
2024/03/05 03:21:17;;;;;;;29.77;20.73;;;10.20;1.00;;;;;;5118514;28;20164;-41
2024/03/05 03:23:44;;;;;;;26.23;20.23;;;10.20;1.00;;;;;;5100091;28;20224;-42
2024/03/05 03:26:11;;;;;;;27.40;20.93;;;10.20;1.00;;;;;;5118502;28;20464;-39
2024/03/05 03:28:37;;;;;;;29.03;21.13;;;10.20;1.00;;;;;;5118613;28;20719;-44
2024/03/05 03:31:05;;;;;;;27.63;19.57;;;10.20;1.00;;;;;;5118975;28;20501;-41
2024/03/05 03:33:31;;;;;;;28.93;21.87;;;10.20;1.00;;;;;;5119380;28;20653;-44
2024/03/05 03:35:57;;;;;;;31.73;21.50;;;10.20;1.00;;;;;;5118948;28;20469;-42
2024/03/05 03:38:23;;;;;;;27.47;21.13;;;10.20;1.00;;;;;;5117519;28;20603;-43
2024/03/05 03:40:49;;;;;;;28.60;21.73;;;10.20;1.00;;;;;;5117534;28;20512;-40
2024/03/05 03:43:15;;;;;;;30.60;21.40;;;10.20;1.00;;;;;;5117556;28;20175;-41
2024/03/05 03:45:41;;;;;;;25.57;19.50;;;10.10;1.00;;;;;;5118730;28;20255;-40
2024/03/05 03:48:07;;;;;;;24.80;18.70;;;10.10;1.00;;;;;;5098299;28;20872;-41
2024/03/05 03:50:33;;;;;;;29.73;21.60;;;10.20;1.00;;;;;;5099378;28;20225;-42
2024/03/05 03:52:59;;;;;;;27.20;20.13;;;10.20;1.00;;;;;;5118799;28;20450;-40
2024/03/05 03:55:26;;;;;;;28.77;20.67;;;10.20;1.00;;;;;;5117711;28;20501;-40
2024/03/05 03:57:52;;;;;;;32.00;21.63;;;10.20;1.00;;;;;;5118523;28;20541;-40
2024/03/05 04:00:18;;;;;;;33.43;21.87;;;10.20;1.00;;;;;;5099368;28;20461;-41
2024/03/05 04:02:45;;;;;;;29.30;21.37;;;10.10;1.00;;;;;;5118140;28;20497;-40
2024/03/05 04:05:11;;;;;;;30.03;21.30;;;10.10;1.00;;;;;;5118554;28;20203;-40
2024/03/05 04:07:37;;;;;;;34.23;22.47;;;10.10;1.00;;;;;;5118495;28;20827;-40
2024/03/05 04:10:06;;;;;;;31.97;22.37;;;10.10;1.00;;;;;;5117756;28;20465;-42
2024/03/05 04:12:32;;;;;;;29.57;22.17;;;10.10;1.00;;;;;;5116736;28;20203;-41
2024/03/05 04:14:58;;;;;;;35.30;24.30;;;10.10;1.00;;;;;;5117967;28;20637;-41
2024/03/05 04:17:23;;;;;;;32.10;23.10;;;10.10;1.00;;;;;;5100001;28;20478;-43
2024/03/05 04:19:49;;;;;;;35.97;23.30;;;10.10;1.00;;;;;;5118230;28;20216;-42
2024/03/05 04:22:15;;;;;;;34.20;24.07;;;10.10;1.00;;;;;;5118355;28;20179;-39
2024/03/05 04:24:52;;;;;;;33.40;24.60;;;10.10;1.00;;;;;;5117957;28;20227;-41
2024/03/05 04:27:21;;;;;;;35.93;24.47;;;10.10;1.00;;;;;;5118067;28;20461;-41
2024/03/05 04:29:51;;;;;;;33.80;24.30;;;10.10;1.00;;;;;;5117049;28;20486;-42
2024/03/05 04:32:17;;;;;;;30.23;22.57;;;10.10;1.00;;;;;;5118150;28;20820;-40
2024/03/05 04:34:49;;;;;;;35.67;24.33;;;10.10;1.00;;;;;;5117913;28;20433;-40
2024/03/05 04:37:16;;;;;;;33.80;23.13;;;10.10;1.00;;;;;;5117484;28;20577;-39
2024/03/05 04:39:42;;;;;;;35.03;24.37;;;10.10;1.00;;;;;;5099106;28;20488;-40
2024/03/05 04:42:08;;;;;;;31.60;24.40;;;10.10;1.00;;;;;;5116963;28;20819;-41
2024/03/05 04:44:34;;;;;;;33.77;22.60;;;10.10;1.00;;;;;;5116411;28;20566;-40
2024/03/05 04:47:01;;;;;;;36.47;26.60;;;10.10;1.00;;;;;;5116578;28;20555;-41
2024/03/05 04:49:27;;;;;;;34.87;24.40;;;10.10;1.00;;;;;;5097941;28;20426;-40
2024/03/05 04:51:52;;;;;;;35.67;24.87;;;10.00;1.00;;;;;;5116165;28;20726;-40
2024/03/05 04:54:18;;;;;;;35.03;24.70;;;10.10;1.00;;;;;;5115037;28;20597;-41
2024/03/05 04:56:44;;;;;;;31.90;22.80;;;10.00;1.00;;;;;;5112946;28;20428;-40
2024/03/05 04:59:09;;;;;;;32.77;23.60;;;10.00;1.00;;;;;;5112969;28;20609;-43
2024/03/05 05:01:35;;;;;;;33.70;24.10;;;10.00;1.00;;;;;;5113899;28;20537;-40
2024/03/05 05:04:02;;;;;;;34.10;24.00;;;10.00;1.00;;;;;;5117388;28;20780;-42
2024/03/05 05:06:28;;;;;;;32.13;24.03;;;10.00;1.00;;;;;;5099186;28;20482;-40
2024/03/05 05:08:53;;;;;;;33.83;23.67;;;10.00;1.00;;;;;;5117545;28;20457;-41
2024/03/05 05:11:20;;;;;;;34.53;24.40;;;10.00;1.00;;;;;;5101262;28;20187;-42
2024/03/05 05:13:46;;;;;;;32.37;23.20;;;10.00;1.00;;;;;;5119048;28;20202;-44
2024/03/05 05:16:12;;;;;;;35.37;25.70;;;10.00;1.00;;;;;;5120558;28;20429;-42
2024/03/05 05:18:38;;;;;;;33.87;23.83;;;10.10;1.00;;;;;;5100501;28;20523;-44
2024/03/05 05:21:04;;;;;;;31.10;23.20;;;10.00;1.00;;;;;;5119838;28;20406;-44
2024/03/05 05:23:30;;;;;;;37.63;26.20;;;10.00;1.00;;;;;;5102965;28;20416;-41
2024/03/05 05:25:56;;;;;;;34.00;22.90;;;10.00;1.00;;;;;;5100822;28;20493;-42
2024/03/05 05:28:22;;;;;;;35.40;24.50;;;10.10;1.00;;;;;;5118336;28;20292;-44
2024/03/05 05:30:48;;;;;;;32.00;23.73;;;10.00;1.00;;;;;;5099088;28;20179;-42
2024/03/05 05:33:14;;;;;;;33.33;24.57;;;10.10;1.00;;;;;;5115544;28;20405;-40
2024/03/05 05:35:40;;;;;;;31.37;22.50;;;10.10;1.00;;;;;;5116432;28;20164;-43
2024/03/05 05:38:10;;;;;;;32.63;24.33;;;10.10;1.00;;;;;;5099320;28;20425;-41
2024/03/05 05:40:36;;;;;;;34.43;22.80;;;10.10;1.00;;;;;;5118127;28;20445;-40
2024/03/05 05:43:01;;;;;;;31.10;23.70;;;10.10;1.00;;;;;;5117051;28;20747;-45
2024/03/05 05:45:28;;;;;;;32.43;22.40;;;10.10;1.00;;;;;;5118082;28;20237;-42
2024/03/05 05:47:56;;;;;;;28.77;21.40;;;10.10;1.00;;;;;;5118732;28;20168;-40
2024/03/05 05:50:25;;;;;;;30.30;22.60;;;10.00;1.00;;;;;;5119743;28;20736;-41
2024/03/05 05:52:54;;;;;;;35.33;25.03;;;10.00;1.00;;;;;;5119378;28;20421;-40
2024/03/05 05:55:21;;;;;;;32.50;24.10;;;10.00;1.00;;;;;;5119790;28;20425;-39
2024/03/05 05:57:48;;;;;;;32.03;22.77;;;10.00;1.00;;;;;;5119682;28;20434;-41
2024/03/05 06:03:00;;;;;;;34.00;23.00;;;10.00;1.00;;;;;;5119760;28;20489;-41
2024/03/05 06:05:28;;;;;;;33.13;24.30;;;10.00;1.00;;;;;;5099248;28;20475;-41
2024/03/05 06:07:54;;;;;;;33.00;23.37;;;10.10;1.00;;;;;;5115847;28;20469;-42
2024/03/05 06:10:22;;;;;;;34.00;24.43;;;10.10;1.00;;;;;;5115498;28;20438;-41
2024/03/05 06:12:49;;;;;;;34.30;24.67;;;10.10;1.00;;;;;;5101862;28;20688;-40
2024/03/05 06:15:17;;;;;;;33.10;23.67;;;10.10;1.00;;;;;;5093930;28;20483;-41
2024/03/05 06:17:43;;;;;;;32.90;25.67;;;10.10;1.00;;;;;;5094290;28;20820;-41
2024/03/05 06:20:10;;;;;;;38.10;24.07;;;10.10;1.00;;;;;;5076407;28;20612;-42
2024/03/05 06:22:40;;;;;;;32.33;24.53;;;10.10;1.00;;;;;;5094112;28;20454;-42
2024/03/05 06:25:09;;;;;;;36.67;23.97;;;10.10;1.00;;;;;;5094601;28;20441;-42
2024/03/05 06:27:38;;;;;;;36.03;25.37;;;10.10;1.00;;;;;;5060997;28;20849;-41
2024/03/05 06:30:08;;;;;;;35.07;24.00;;;10.10;1.00;;;;;;5078639;28;20418;-42
2024/03/05 06:32:46;;;;;;;35.47;24.07;;;10.10;1.00;;;;;;5078994;28;20716;-41
2024/03/05 06:35:12;;;;;;;37.27;26.27;;;10.10;1.00;;;;;;5098013;28;20863;-40
2024/03/05 06:37:45;;;;;;;30.80;23.00;;;10.10;1.00;;;;;;5097655;28;20430;-41
2024/03/05 06:40:16;;;;;;;36.07;24.87;;;10.10;1.00;;;;;;5097016;28;20485;-42
2024/03/05 06:42:43;;;;;;;38.73;26.00;;;10.10;1.00;;;;;;5077738;28;20438;-42
2024/03/05 06:45:10;;;;;;;35.20;24.23;;;10.10;1.00;;;;;;5077798;28;20523;-40
2024/03/05 06:47:39;;;;;;;33.80;23.27;;;10.10;1.00;;;;;;5096267;28;20415;-43
2024/03/05 06:50:10;;;;;;;40.60;26.17;;;10.10;1.00;;;;;;5093844;28;20441;-40
2024/03/05 06:58:05;;;;;;;37.00;25.10;;;10.20;1.00;;;;;;5095627;28;20505;-41
2024/03/05 07:00:31;;;;;;;37.63;25.97;;;10.20;1.00;;;;;;5077272;28;20482;-40
2024/03/05 07:02:57;;;;;;;43.03;27.53;;;10.20;1.00;;;;;;5093907;28;20649;-41
2024/03/05 07:05:22;;;;;;;41.13;27.00;;;10.20;1.00;;;;;;5096300;28;20185;-42
2024/03/05 07:07:51;;;;;;;40.50;28.40;;;10.20;1.00;;;;;;5096638;28;20477;-41
2024/03/05 07:10:21;;;;;;;40.70;26.97;;;10.20;1.00;;;;;;5096524;28;20566;-40
2024/03/05 07:12:49;;;;;;;41.00;26.67;;;10.20;1.00;;;;;;5096881;28;20441;-44
2024/03/05 07:15:14;;;;;;;40.00;26.23;;;10.20;1.00;;;;;;5063364;28;20483;-40
2024/03/05 07:17:43;;;;;;;41.83;27.73;;;10.20;1.00;;;;;;5097469;28;20545;-40
2024/03/05 07:20:22;;;;;;;39.03;26.80;;;10.20;1.00;;;;;;5097074;28;20590;-40
2024/03/05 07:22:49;;;;;;;37.80;25.50;;;10.30;1.00;;;;;;5095491;28;20528;-41
2024/03/05 07:25:15;;;;;;;36.93;25.57;;;10.30;1.00;;;;;;5096469;28;20445;-41
2024/03/05 07:27:45;;;;;;;39.63;25.47;;;10.30;1.00;;;;;;5096814;28;20797;-41
2024/03/05 07:30:18;;;;;;;43.10;27.80;;;10.30;1.00;;;;;;5077468;28;20828;-40
2024/03/05 07:32:47;;;;;;;41.20;26.83;;;10.40;1.00;;;;;;5061401;28;20431;-41
2024/03/05 07:35:15;;;;;;;34.23;25.23;;;10.40;1.00;;;;;;5097231;28;20800;-40
2024/03/05 07:37:44;;;;;;;40.83;27.27;;;10.40;1.00;;;;;;5096432;28;20426;-43
2024/03/05 07:40:17;;;;;;;38.30;28.13;;;10.40;1.00;;;;;;5079992;28;20469;-41
2024/03/05 07:42:47;;;;;;;37.20;25.60;;;10.40;1.00;;;;;;5097416;28;20426;-40
2024/03/05 07:45:16;;;;;;;35.60;24.90;;;10.50;1.00;;;;;;5078654;28;20407;-43
2024/03/05 07:47:43;;;;;;;34.73;25.40;;;10.50;1.00;;;;;;5097149;28;20417;-42
2024/03/05 07:50:12;;;;;;;37.23;24.43;;;10.50;1.00;;;;;;5096912;28;20517;-42
2024/03/05 07:52:46;;;;;;;34.40;24.70;;;10.50;1.00;;;;;;5079437;28;20445;-43
2024/03/05 07:55:21;;;;;;;37.67;24.80;;;10.50;1.00;;;;;;5093668;28;20422;-42
2024/03/05 07:57:52;;;;;;;34.97;25.63;;;10.50;1.00;;;;;;5096402;28;20430;-43
2024/03/05 08:00:20;;;;;;;37.00;25.47;;;10.50;1.00;;;;;;5095251;28;20756;-41
2024/03/05 08:02:50;;;;;;;33.33;23.43;;;10.60;1.00;;;;;;5094767;28;20844;-41
2024/03/05 08:05:18;;;;;;;35.53;24.60;;;10.60;1.00;;;;;;5095705;28;20529;-42
2024/03/05 08:07:45;;;;;;;32.50;23.00;;;10.60;1.00;;;;;;5095342;28;20482;-42
2024/03/05 08:10:12;;;;;;;32.90;22.97;;;10.60;1.00;;;;;;5095428;28;20430;-43
2024/03/05 08:12:43;;;;;;;31.80;23.00;;;10.60;99.90;;;;;;5094513;28;20515;-40
2024/03/05 08:15:12;;;;;;;34.43;23.33;;;10.60;1.00;;;;;;5076437;28;20869;-41
2024/03/05 08:17:40;;;;;;;33.90;24.37;;;10.60;99.90;;;;;;5095403;28;20422;-42
2024/03/05 08:20:09;;;;;;;31.20;20.73;;;10.60;1.00;;;;;;5095044;28;20871;-42
2024/03/05 08:22:35;;;;;;;34.47;23.90;;;10.60;1.00;;;;;;5077407;28;20430;-43
2024/03/05 08:25:12;;;;;;;31.73;23.27;;;10.70;99.90;;;;;;5093989;28;20825;-42
2024/03/05 08:27:45;;;;;;;31.77;21.30;;;10.70;99.90;;;;;;5093457;28;20179;-44
2024/03/05 08:30:32;;;;;;;33.57;21.80;;;10.70;99.90;;;;;;5095419;28;20513;-39
2024/03/05 08:33:00;;;;;;;28.70;20.30;;;10.70;99.90;;;;;;5095500;28;20874;-44
2024/03/05 08:35:29;;;;;;;14.30;9.03;;;10.80;99.90;;;;;;5096506;28;20836;-43
2024/03/05 08:37:56;;;;;;;9.90;7.50;;;10.90;91.50;;;;;;5096349;28;20545;-46
2024/03/05 08:40:22;;;;;;;10.93;5.90;;;11.60;1.00;;;;;;5095130;28;20805;-46
2024/03/05 08:42:49;;;;;;;8.67;6.47;;;12.40;1.00;;;;;;5096345;28;20809;-43
2024/03/05 08:45:24;;;;;;;11.80;6.20;;;13.20;99.90;;;;;;5076894;28;20176;-45
2024/03/05 08:47:51;;;;;;;10.50;6.70;;;14.00;99.90;;;;;;5096579;28;20531;-41
2024/03/05 08:50:18;;;;;;;9.57;6.50;;;14.70;1.00;;;;;;5096265;28;20422;-44
2024/03/05 08:52:44;;;;;;;7.37;5.17;;;15.30;99.90;;;;;;5096289;28;20495;-46
2024/03/05 08:55:10;;;;;;;8.13;5.73;;;15.70;1.00;;;;;;5094545;28;20418;-42
2024/03/05 08:57:40;;;;;;;6.13;5.53;;;16.10;99.90;;;;;;5095940;28;20708;-44
2024/03/05 09:00:14;;;;;;;7.30;6.50;;;16.40;1.00;;;;;;5077324;28;20476;-43
2024/03/05 09:02:41;;;;;;;7.33;5.37;;;16.70;1.00;;;;;;5081388;28;21014;-43
2024/03/05 09:05:12;;;;;;;7.57;5.70;;;16.90;99.90;;;;;;5096603;28;20445;-43
2024/03/05 09:07:38;;;;;;;6.80;5.33;;;17.00;1.00;;;;;;5095843;28;20506;-45
2024/03/05 09:10:08;;;;;;;6.90;5.70;;;17.00;99.90;;;;;;5096488;28;20418;-44
2024/03/05 09:12:33;;;;;;;6.83;5.37;;;17.10;99.90;;;;;;5096554;28;20417;-42
2024/03/05 09:14:59;;;;;;;9.23;5.67;;;17.20;1.00;;;;;;5095065;28;20513;-42
2024/03/05 09:17:25;;;;;;;7.60;5.97;;;17.20;1.00;;;;;;5095981;28;20261;-43
2024/03/05 09:19:52;;;;;;;5.60;4.73;;;17.20;1.00;;;;;;5096457;28;20218;-44
2024/03/05 09:22:19;;;;;;;7.83;5.07;;;17.20;1.00;;;;;;5096849;28;20438;-41
2024/03/05 09:24:45;;;;;;;6.70;6.00;;;17.30;1.00;;;;;;5095341;28;20417;-43
2024/03/05 09:27:10;;;;;;;8.50;4.60;;;17.30;99.90;;;;;;5095286;28;20720;-44
2024/03/05 09:29:36;;;;;;;6.63;4.10;;;17.30;99.90;;;;;;5095891;28;20429;-45
2024/03/05 09:32:02;;;;;;;5.90;4.13;;;17.30;99.90;;;;;;5095731;28;20261;-41
2024/03/05 09:34:28;;;;;;;5.30;4.80;;;17.40;99.90;;;;;;5095591;28;20199;-43
2024/03/05 09:36:56;;;;;;;4.60;4.03;;;17.50;99.90;;;;;;5096208;28;20693;-42
2024/03/05 09:39:22;;;;;;;6.90;3.73;;;17.60;99.90;;;;;;5095149;28;20200;-42
2024/03/05 09:41:52;;;;;;;4.80;3.40;;;17.60;99.90;;;;;;5096431;28;20430;-42
2024/03/05 09:44:18;;;;;;;4.70;4.20;;;17.70;99.90;;;;;;5095650;28;20410;-41
2024/03/05 09:46:45;;;;;;;4.20;3.80;;;17.80;99.90;;;;;;5078208;28;20419;-42
2024/03/05 09:49:20;;;;;;;3.87;3.40;;;17.80;99.90;;;;;;5082287;28;20445;-43
2024/03/05 09:51:47;;;;;;;5.00;3.90;;;17.80;97.30;;;;;;5100316;28;20413;-41
2024/03/05 09:54:13;;;;;;;4.30;3.20;;;17.90;54.20;;;;;;5098677;28;20418;-41
2024/03/05 09:56:45;;;;;;;6.43;3.60;;;17.90;28.20;;;;;;5101304;28;20973;-42
2024/03/05 09:59:13;;;;;;;6.13;5.27;;;17.80;1.00;;;;;;5099953;28;20558;-41
2024/03/05 10:01:43;;;;;;;5.83;5.20;;;17.30;1.00;;;;;;5099961;28;20502;-42
2024/03/05 10:04:17;;;;;;;5.93;5.33;;;16.70;1.00;;;;;;5100914;28;20406;-43
2024/03/05 10:06:46;;;;;;;7.17;5.00;;;16.10;1.00;;;;;;5099085;28;20502;-42
2024/03/05 10:09:13;;;;;;;7.23;5.77;;;15.60;1.00;;;;;;5081461;28;20492;-42
2024/03/05 10:11:40;;;;;;;9.10;6.70;;;15.20;1.00;;;;;;5099634;28;20434;-41
2024/03/05 10:14:07;;;;;;;7.30;6.03;;;14.90;1.00;;;;;;5082462;28;21006;-41
2024/03/05 10:16:34;;;;;;;8.00;7.20;;;14.70;1.00;;;;;;5099797;28;20851;-42
2024/03/05 10:19:11;;;;;;;9.10;8.13;;;14.50;9.20;;;;;;5099686;28;20454;-42
2024/03/05 10:21:40;;;;;;;8.73;7.43;;;14.40;49.40;;;;;;5101214;28;20414;-41
2024/03/05 10:24:07;;;;;;;8.43;7.63;;;14.20;99.90;;;;;;5100011;28;20836;-41
2024/03/05 10:26:34;;;;;;;9.57;8.03;;;14.10;99.90;;;;;;5081518;28;20439;-44
2024/03/05 10:29:08;;;;;;;9.43;7.70;;;14.00;99.90;;;;;;5099124;28;20435;-41
2024/03/05 10:31:40;;;;;;;11.20;8.17;;;13.80;99.90;;;;;;5098606;28;20503;-42
2024/03/05 10:34:09;;;;;;;9.70;7.57;;;13.70;99.90;;;;;;5099820;28;20738;-41
2024/03/05 10:36:40;;;;;;;9.20;8.20;;;13.70;99.90;;;;;;5098951;28;20820;-41
2024/03/05 10:39:06;;;;;;;8.03;7.23;;;13.60;99.90;;;;;;5081738;28;20508;-41
2024/03/05 10:41:38;;;;;;;8.33;7.37;;;13.50;1.00;;;;;;5099916;28;20456;-40
2024/03/05 10:44:09;;;;;;;8.23;7.40;;;13.60;1.00;;;;;;5098988;28;20427;-43
2024/03/05 10:46:35;;;;;;;7.20;6.40;;;13.60;1.00;;;;;;5099032;28;20434;-40
2024/03/05 10:49:03;;;;;;;6.70;5.97;;;13.60;1.00;;;;;;5078009;28;20708;-41
2024/03/05 10:51:31;;;;;;;7.20;6.50;;;13.50;1.00;;;;;;5094686;28;20426;-41
2024/03/05 10:54:01;;;;;;;6.10;5.50;;;13.40;1.00;;;;;;5095161;28;20533;-42
2024/03/05 10:56:27;;;;;;;8.33;6.33;;;13.40;1.00;;;;;;5094455;28;20836;-41
2024/03/05 11:01:38;;;;;;;7.33;6.03;;;13.20;1.00;;;;;;5094117;28;20428;-40
2024/03/05 11:04:23;;;;;;;7.33;6.53;;;13.10;1.00;;;;;;5094934;28;20427;-39
2024/03/05 11:06:55;;;;;;;6.50;5.90;;;13.00;1.00;;;;;;5078907;28;20421;-41
2024/03/05 11:09:22;;;;;;;7.80;7.00;;;12.80;43.20;;;;;;5097701;28;20494;-42
2024/03/05 11:11:57;;;;;;;5.83;5.33;;;12.70;99.90;;;;;;5095781;28;20439;-41
2024/03/05 11:14:24;;;;;;;6.60;5.00;;;12.60;99.90;;;;;;5077783;28;20437;-41
2024/03/05 11:16:59;;;;;;;6.93;5.73;;;12.50;99.90;;;;;;5077635;28;20545;-41
2024/03/05 11:19:28;;;;;;;5.80;4.73;;;12.30;99.90;;;;;;5095510;28;20520;-42
2024/03/05 11:21:55;;;;;;;5.60;4.43;;;12.30;99.90;;;;;;5097208;28;20418;-40
2024/03/05 11:24:21;;;;;;;6.27;5.07;;;12.20;1.00;;;;;;5098734;28;20423;-40
2024/03/05 11:26:47;;;;;;;5.47;4.43;;;12.10;1.00;;;;;;5098529;28;20426;-41
2024/03/05 11:29:16;;;;;;;4.30;3.90;;;12.00;1.00;;;;;;5079514;28;20678;-42
2024/03/05 11:31:46;;;;;;;6.07;4.63;;;11.90;1.00;;;;;;5098308;28;20752;-43
2024/03/05 11:34:13;;;;;;;6.20;4.43;;;11.90;82.00;;;;;;5097622;28;20410;-41
2024/03/05 11:36:39;;;;;;;5.33;4.43;;;11.90;99.90;;;;;;5097422;28;20740;-42
2024/03/05 11:39:19;;;;;;;4.90;4.40;;;11.90;99.90;;;;;;5096842;28;20534;-41
2024/03/05 11:41:47;;;;;;;5.80;5.13;;;11.90;1.00;;;;;;5099747;28;20685;-43
2024/03/05 11:44:35;;;;;;;6.23;5.73;;;11.90;1.00;;;;;;5097731;28;20430;-41
2024/03/05 11:47:01;;;;;;;7.07;6.13;;;11.90;1.00;;;;;;5095732;28;20430;-41
2024/03/05 11:49:27;;;;;;;5.10;4.40;;;11.90;92.70;;;;;;5081273;28;20524;-42
2024/03/05 11:51:53;;;;;;;5.90;5.10;;;12.00;99.90;;;;;;5099402;28;20585;-43
2024/03/05 11:54:20;;;;;;;9.10;4.73;;;12.00;99.90;;;;;;5100390;28;20764;-42
2024/03/05 11:56:59;;;;;;;5.80;4.57;;;12.00;74.10;;;;;;5100224;28;20679;-43
2024/03/05 11:59:34;;;;;;;4.60;4.10;;;12.00;50.20;;;;;;5116000;28;20469;-42
2024/03/05 12:02:00;;;;;;;4.97;4.20;;;11.90;98.00;;;;;;5115450;28;20456;-43
2024/03/05 12:04:26;;;;;;;4.23;3.87;;;11.90;99.90;;;;;;5117632;28;20842;-44
2024/03/05 12:07:06;;;;;;;4.40;3.70;;;11.90;99.90;;;;;;5117782;28;20414;-43
2024/03/05 12:09:32;;;;;;;4.17;3.67;;;11.90;1.00;;;;;;5117130;28;20715;-42
2024/03/05 12:12:22;;;;;;;5.37;4.77;;;12.00;1.00;;;;;;5081486;28;20425;-42
2024/03/05 12:14:54;;;;;;;5.20;4.70;;;12.00;1.00;;;;;;5115524;28;20401;-46
2024/03/05 12:17:21;;;;;;;3.60;2.97;;;11.90;1.00;;;;;;5116767;28;20417;-42
2024/03/05 12:20:06;;;;;;;3.10;2.80;;;11.90;1.00;;;;;;5098860;28;20499;-42
2024/03/05 12:22:32;;;;;;;3.00;2.27;;;12.00;1.00;;;;;;5115588;28;20498;-41
2024/03/05 12:24:57;;;;;;;2.00;1.80;;;12.00;1.00;;;;;;5097097;28;20459;-41
2024/03/05 12:27:23;;;;;;;1.50;1.30;;;12.10;99.90;;;;;;5113902;28;20217;-42
2024/03/05 12:29:51;;;;;;;1.73;1.30;;;12.20;32.50;;;;;;5115239;28;20175;-42
2024/03/05 12:32:18;;;;;;;2.23;1.50;;;12.50;1.00;;;;;;5097549;28;20551;-42
2024/03/05 12:34:47;;;;;;;1.80;1.33;;;12.70;99.90;;;;;;5114810;28;20532;-42
2024/03/05 12:37:13;;;;;;;2.03;1.57;;;13.10;37.00;;;;;;5095977;28;20412;-43
2024/03/05 12:39:40;;;;;;;1.70;1.53;;;13.40;1.00;;;;;;5111652;28;20461;-42
2024/03/05 12:42:07;;;;;;;1.50;1.33;;;13.60;99.90;;;;;;5094466;28;20432;-41
2024/03/05 12:44:33;;;;;;;1.20;1.00;;;13.80;49.50;;;;;;5113547;28;20422;-45
2024/03/05 12:47:15;;;;;;;1.87;1.27;;;13.80;1.00;;;;;;5095208;28;20434;-42
2024/03/05 12:49:48;;;;;;;2.67;1.40;;;13.70;1.00;;;;;;5112976;28;20676;-43
2024/03/05 12:52:23;;;;;;;1.80;1.47;;;13.60;1.00;;;;;;5114747;28;20414;-44
2024/03/05 12:54:59;;;;;;;1.60;1.20;;;13.50;1.00;;;;;;5115341;28;20779;-42
2024/03/05 12:57:27;;;;;;;2.17;1.40;;;13.60;1.00;;;;;;5114405;28;20413;-41